• Join FlightAware (Why Join?)
  • Login
  • US Flag 
12:22PM EDT


 

Airport Tracker/Info


-or-


 

Live Flight TrackerFlight Track Log ✈ N8136R ✈ 10-May-2013 ✈ KLIT - KHRO

Flight Track Log - Related Links

Times and Time Zones

All times are in EDT time to prevent confusion due to time zone crossing. See the N8136R flight status page for this flight to view local times or setup timezone preferences in your user account.

Time Position Orientation Groundspeed Altitude Reporting Facility
EDT Latitude Longitude Course Direction KTS MPH feet Rate Location/Type
02:32PM 34.7136 -92.2469 261° West 119 137 600  Level Memphis Center
02:32PM 34.7089 -92.2847 261° West 135 155 1,500 900 Climbing Memphis Center
02:33PM 34.7378 -92.3006 336° Northwest 127 146 2,400 780 Climbing Memphis Center
02:34PM 34.7750 -92.3167 340° North 139 160 3,100 660 Climbing Memphis Center
02:35PM 34.8125 -92.3325 341° North 139 160 3,800 420 Climbing Memphis Center
02:36PM 34.8497 -92.3436 346° North 146 168 4,000 60 Climbing Memphis Center
02:38PM 34.9036 -92.3675 340° North 175 201 4,000  Level Memphis Center
02:39PM 34.9450 -92.3914 335° Northwest 178 205 4,000  Level Memphis Center
02:40PM 34.9903 -92.4178 334° Northwest 172 198 4,000  Level Memphis Center
02:41PM 35.0339 -92.4442 334° Northwest 169 194 4,000  Level Memphis Center
02:42PM 35.0731 -92.4681 333° Northwest 166 191 4,000  Level Memphis Center
02:43PM 35.1186 -92.4919 337° Northwest 167 192 4,000  Level Memphis Center
02:43PM 35.1392 -92.5003 342° North 166 191 4,000  Level Memphis Center
02:44PM 35.1786 -92.5214 336° Northwest 176 203 4,000  Level Memphis Center
02:45PM 35.2219 -92.5481 333° Northwest 170 196 4,000  Level Memphis Center
02:46PM 35.2631 -92.5719 335° Northwest 170 196 4,000  Level Memphis Center
02:47PM 35.3064 -92.5961 336° Northwest 170 196 4,000  Level Memphis Center
02:48PM 35.3497 -92.6228 333° Northwest 170 196 4,000  Level Memphis Center
02:49PM 35.3931 -92.6494 333° Northwest 170 196 4,000  Level Memphis Center
02:50PM 35.4411 -92.6558 354° North 170 196 4,000  Level Memphis Center
02:51PM 35.4872 -92.6342 21° North 159 183 4,000  Level Memphis Center
02:52PM 35.5353 -92.6278 North 159 183 4,000  Level Memphis Center
02:53PM 35.5792 -92.6314 356° North 159 183 4,000  Level Memphis Center
02:54PM 35.6269 -92.6406 351° North 159 183 4,000  Level Memphis Center
02:55PM 35.6703 -92.6594 341° North 165 190 4,000  Level Memphis Center
02:56PM 35.7072 -92.6911 325° Northwest 165 190 4,000  Level Memphis Center
02:57PM 35.7483 -92.7231 328° Northwest 165 190 4,000  Level Memphis Center
02:58PM 35.7853 -92.7547 325° Northwest 165 190 4,100  Climbing Memphis Center
02:59PM 35.8244 -92.7867 327° Northwest 171 197 4,100  Level Memphis Center
03:00PM 35.8614 -92.8186 325° Northwest 171 197 4,100  Level Memphis Center
03:01PM 35.9003 -92.8503 327° Northwest 171 197 4,100  Level Memphis Center
03:02PM 35.9372 -92.8822 325° Northwest 171 197 4,100  Level Memphis Center
03:03PM 35.9761 -92.9167 324° Northwest 171 197 4,100  Level Memphis Center
03:04PM 36.0150 -92.9489 326° Northwest 171 197 4,100  Level Memphis Center
03:05PM 36.0519 -92.9808 325° Northwest 171 197 4,100  Level Memphis Center
03:06PM 36.0886 -93.0153 323° Northwest 171 197 4,100 -240 Level Memphis Center
03:07PM 36.1278 -93.0450 328° Northwest 171 197 3,700 -300 Descending Memphis Center
03:08PM 36.1603 -93.0742 324° Northwest 171 197 3,600 -120 Descending Memphis Center